Cheshire, Oregon
Current Conditions -  °F | °C
As of 12:22 AM on Saturday 25 Oct 2014 (Local Time) from KEUG Reporting Station
Haze Haze  
Wind Chill: 51°   Ceiling: 400
Heat Index: 51°   Visibility: 5mi
Dew Point: 50°   Wind: 5mph
Humidity: 96%   Direction: 30°NNE
Pressure: 29.65"   Gusts: NA
Location:  44.19°N, 123.29°W
Report Text: KEUG 250722Z AUTO 03004KT 5SM BR OVC004 11/10 A2965 RMK AO2 T01060100
Loading
Personal Weather Stations






























Interactive Weather Map
Tropical Storm Tracking
New forecast layout! Learn more

10-Day Weather Forecast

Advertisements
Track Severe Weather on mobile